createdAt,value
2018-11-28T00:04:16.738Z,94.50
2018-11-28T00:06:45.442Z,94.40
2018-11-28T00:14:09.245Z,93.70
2018-11-28T00:16:37.225Z,94.50
2018-11-28T00:21:33.426Z,93.90
2018-11-28T00:26:29.172Z,96.60
2018-11-28T00:28:57.451Z,95.90
2018-11-28T00:31:25.411Z,96.30
2018-11-28T00:33:53.577Z,96.30
2018-11-28T00:36:21.882Z,96.00
2018-11-28T00:41:18.059Z,93.30
2018-11-28T00:43:46.280Z,92.40
2018-11-28T00:46:14.242Z,93.10
2018-11-28T00:53:37.978Z,92.40
2018-11-28T00:56:06.078Z,92.00
2018-11-28T00:58:34.615Z,92.70
2018-11-28T01:01:02.590Z,92.90
2018-11-28T01:03:30.556Z,92.00
2018-11-28T01:08:26.390Z,91.00
2018-11-28T01:10:54.355Z,92.30
2018-11-28T01:13:22.795Z,92.90
2018-11-28T01:15:51.003Z,92.50
2018-11-28T01:20:46.747Z,93.30
2018-11-28T01:25:42.481Z,93.40
2018-11-28T01:30:38.618Z,92.50
2018-11-28T01:33:06.587Z,92.90
2018-11-28T01:40:30.510Z,93.20
2018-11-28T01:42:58.471Z,93.50
2018-11-28T01:45:27.054Z,94.20
2018-11-28T01:47:55.326Z,95.10
2018-11-28T01:50:23.593Z,95.10
2018-11-28T01:52:51.935Z,95.30
2018-11-28T01:55:21.071Z,95.20
2018-11-28T01:57:49.327Z,95.20
2018-11-28T02:00:22.348Z,94.70
2018-11-28T02:07:50.127Z,93.40
2018-11-28T02:12:46.287Z,91.90
2018-11-28T02:15:16.407Z,91.00
2018-11-28T02:17:44.555Z,90.50
2018-11-28T02:22:41.911Z,90.30
2018-11-28T02:25:14.022Z,89.50
2018-11-28T02:27:42.079Z,88.70
2018-11-28T02:32:38.469Z,87.60
2018-11-28T02:37:35.173Z,89.20
2018-11-28T02:42:31.244Z,88.80
2018-11-28T02:44:59.218Z,88.40
2018-11-28T02:47:27.467Z,88.10
2018-11-28T02:49:55.439Z,88.40
2018-11-28T02:54:51.479Z,89.10
2018-11-28T02:57:19.766Z,89.60
2018-11-28T02:59:47.726Z,89.30
2018-11-28T03:02:15.893Z,89.20
2018-11-28T03:04:43.886Z,88.30
2018-11-28T03:07:12.027Z,88.20
2018-11-28T03:09:40.367Z,88.90
2018-11-28T03:12:08.306Z,89.20
2018-11-28T03:14:36.313Z,90.30
2018-11-28T03:17:04.451Z,89.80
2018-11-28T03:22:00.193Z,89.40
2018-11-28T03:24:28.355Z,89.20
2018-11-28T03:26:56.328Z,89.50
2018-11-28T03:31:52.365Z,89.60
2018-11-28T03:34:20.345Z,90.00
2018-11-28T03:39:16.344Z,90.50
2018-11-28T03:41:46.311Z,89.50
2018-11-28T03:44:14.538Z,89.80
2018-11-28T03:46:42.511Z,91.10
2018-11-28T03:49:10.695Z,90.90
2018-11-28T03:51:40.666Z,91.10
2018-11-28T03:54:08.658Z,91.00
2018-11-28T03:56:36.733Z,91.00
2018-11-28T03:59:05.563Z,92.00
2018-11-28T04:01:33.699Z,91.70
2018-11-28T04:08:57.400Z,92.70
2018-11-28T04:11:25.378Z,92.90
2018-11-28T04:18:49.580Z,92.50
2018-11-28T04:21:17.547Z,92.90
2018-11-28T04:23:45.711Z,92.70
2018-11-28T04:26:14.027Z,92.20
2018-11-28T04:28:42.006Z,92.60
2018-11-28T04:31:09.963Z,92.00
2018-11-28T04:33:37.993Z,92.50
2018-11-28T04:38:33.742Z,92.50
2018-11-28T04:41:02.015Z,92.90
2018-11-28T04:43:30.071Z,92.60
2018-11-28T04:45:58.150Z,93.00
2018-11-28T04:48:26.452Z,92.60
2018-11-28T04:50:54.429Z,92.60
2018-11-28T04:53:22.576Z,94.20
2018-11-28T04:55:50.879Z,94.20
2018-11-28T05:00:46.826Z,93.30
2018-11-28T05:03:14.854Z,93.60
2018-11-28T05:05:42.818Z,95.00
2018-11-28T05:08:10.798Z,95.60
2018-11-28T05:10:38.893Z,97.00
2018-11-28T05:15:34.630Z,95.50
2018-11-28T05:18:02.590Z,95.20
2018-11-28T05:23:00.562Z,95.30
2018-11-28T05:25:29.075Z,95.50
2018-11-28T05:27:58.570Z,95.40
2018-11-28T05:30:29.603Z,95.50
2018-11-28T05:32:57.735Z,95.30
2018-11-28T05:38:15.505Z,95.70
2018-11-28T05:40:44.257Z,94.70
2018-11-28T05:43:12.254Z,94.60
2018-11-28T05:45:40.539Z,94.80
2018-11-28T05:50:36.295Z,95.70
2018-11-28T05:53:04.350Z,95.80
2018-11-28T05:55:32.385Z,95.30
2018-11-28T05:58:00.328Z,95.20
2018-11-28T06:00:34.875Z,94.40
2018-11-28T06:03:03.003Z,95.30
2018-11-28T06:05:31.011Z,94.40
2018-11-28T06:07:59.130Z,94.60
2018-11-28T06:12:54.880Z,95.10
2018-11-28T06:17:51.403Z,94.60
2018-11-28T06:20:21.319Z,94.60
2018-11-28T06:22:49.665Z,94.40
2018-11-28T06:25:17.635Z,94.10
2018-11-28T06:27:45.791Z,94.20
2018-11-28T06:30:18.782Z,93.60
2018-11-28T06:32:51.163Z,93.20
2018-11-28T06:35:15.190Z,92.60
2018-11-28T06:37:43.662Z,92.10
2018-11-28T06:40:13.113Z,92.30
2018-11-28T06:42:42.718Z,92.30
2018-11-28T06:45:17.955Z,92.20
2018-11-28T06:47:45.926Z,92.40
2018-11-28T06:50:14.955Z,92.20
2018-11-28T06:52:43.895Z,91.50
2018-11-28T07:00:14.338Z,90.70
2018-11-28T07:02:42.490Z,90.90
2018-11-28T07:17:32.738Z,89.20
2018-11-28T07:20:00.834Z,89.30
2018-11-28T07:27:24.892Z,88.00
2018-11-28T07:29:53.102Z,87.30
2018-11-28T07:32:21.076Z,86.60
2018-11-28T07:34:49.262Z,85.20
2018-11-28T07:37:17.548Z,85.50
2018-11-28T07:39:45.498Z,85.50
2018-11-28T07:42:13.487Z,85.70
2018-11-28T07:44:41.574Z,85.20
2018-11-28T07:47:09.843Z,86.00
2018-11-28T07:49:37.796Z,85.10
2018-11-28T07:52:06.054Z,83.50
2018-11-28T07:54:34.030Z,83.70
2018-11-28T07:57:02.004Z,83.90
2018-11-28T07:59:30.750Z,83.30
2018-11-28T08:01:58.691Z,83.80
2018-11-28T08:04:26.741Z,83.80
2018-11-28T08:06:54.786Z,84.20
2018-11-28T08:09:23.071Z,85.00
2018-11-28T08:11:51.067Z,85.90
2018-11-28T08:14:19.222Z,85.70
2018-11-28T08:16:48.159Z,85.40
2018-11-28T08:19:15.359Z,85.70
2018-11-28T08:21:43.635Z,84.90
2018-11-28T08:26:39.689Z,84.70
2018-11-28T08:31:35.502Z,84.20
2018-11-28T08:34:03.499Z,84.30
2018-11-28T08:36:31.646Z,84.30
2018-11-28T08:38:59.964Z,84.60
2018-11-28T08:43:56.066Z,84.70
2018-11-28T08:46:24.043Z,85.40
2018-11-28T08:48:52.266Z,83.90
2018-11-28T08:51:20.524Z,85.00
2018-11-28T08:53:48.552Z,83.80
2018-11-28T08:56:16.559Z,84.90
2018-11-28T08:58:44.895Z,85.40
2018-11-28T09:01:12.906Z,85.40
2018-11-28T09:11:07.142Z,84.50
2018-11-28T09:13:35.094Z,83.90
2018-11-28T09:16:03.075Z,84.50
2018-11-28T09:18:31.131Z,83.90
2018-11-28T09:23:26.875Z,83.30
2018-11-28T09:25:55.118Z,83.50
2018-11-28T09:28:23.442Z,84.10
2018-11-28T09:33:19.326Z,84.30
2018-11-28T09:35:48.294Z,84.30
2018-11-28T09:43:12.246Z,84.30
2018-11-28T09:45:40.206Z,85.40
2018-11-28T09:50:36.247Z,82.60
2018-11-28T09:53:04.715Z,82.90
2018-11-28T09:55:32.794Z,83.60
2018-11-28T09:58:00.770Z,84.20
2018-11-28T10:03:03.198Z,84.20
2018-11-28T10:05:32.489Z,83.50
2018-11-28T10:08:00.862Z,84.20
2018-11-28T10:10:28.926Z,82.80
2018-11-28T10:15:26.438Z,83.50
2018-11-28T10:17:54.421Z,82.80
2018-11-28T10:20:22.457Z,83.60
2018-11-28T10:27:57.247Z,85.10
2018-11-28T10:32:54.212Z,86.50
2018-11-28T10:35:22.482Z,88.10
2018-11-28T10:37:51.518Z,86.30
2018-11-28T10:40:21.159Z,86.60
2018-11-28T10:42:53.251Z,86.70
2018-11-28T10:45:22.418Z,87.80
2018-11-28T10:47:50.793Z,87.10
2018-11-28T10:50:18.859Z,87.30
2018-11-28T10:52:46.857Z,87.00
2018-11-28T10:55:18.942Z,86.40
2018-11-28T10:57:47.216Z,86.40
2018-11-28T11:02:58.532Z,86.90
2018-11-28T11:10:39.007Z,86.90
2018-11-28T11:13:12.678Z,86.10
2018-11-28T11:15:41.419Z,86.60
2018-11-28T11:18:11.270Z,87.30
2018-11-28T11:20:39.373Z,88.10
2018-11-28T11:28:04.132Z,87.20
2018-11-28T11:32:59.899Z,87.20
2018-11-28T11:35:27.882Z,86.50
2018-11-28T11:40:24.703Z,88.90
2018-11-28T11:42:52.666Z,88.70
2018-11-28T11:45:20.839Z,87.80
2018-11-28T11:47:48.871Z,87.90
2018-11-28T11:50:18.074Z,87.60
2018-11-28T11:52:46.074Z,87.20
2018-11-28T11:57:42.639Z,87.40
2018-11-28T12:00:15.631Z,86.30
2018-11-28T12:02:45.521Z,85.90
2018-11-28T12:05:13.605Z,86.90
2018-11-28T12:12:38.259Z,86.70
2018-11-28T12:22:07.267Z,88.70
2018-11-28T12:24:35.263Z,88.70
2018-11-28T12:27:03.546Z,89.00
2018-11-28T12:29:31.524Z,88.70
2018-11-28T12:31:59.584Z,88.50
2018-11-28T12:34:27.955Z,87.70
2018-11-28T12:36:55.927Z,87.60
2018-11-28T12:39:23.928Z,87.40
2018-11-28T12:41:51.932Z,87.20
2018-11-28T12:46:47.675Z,89.10
2018-11-28T12:49:15.955Z,88.70
2018-11-28T12:51:44.227Z,88.20
2018-11-28T12:54:12.510Z,88.80
2018-11-28T12:56:40.778Z,88.70
2018-11-28T12:59:08.786Z,89.40
2018-11-28T13:01:38.152Z,89.10
2018-11-28T13:04:06.478Z,89.30
2018-11-28T13:06:34.698Z,88.50
2018-11-28T13:21:22.722Z,88.40
2018-11-28T13:23:50.991Z,88.20
2018-11-28T13:26:19.083Z,88.60
2018-11-28T13:28:47.034Z,88.10
2018-11-28T13:31:14.991Z,86.50
2018-11-28T13:33:42.980Z,86.70
2018-11-28T13:36:10.967Z,86.80
2018-11-28T13:38:39.015Z,87.20
2018-11-28T13:43:35.155Z,88.70
2018-11-28T13:46:07.155Z,89.00
2018-11-28T13:48:31.716Z,88.90
2018-11-28T13:53:27.867Z,89.70
2018-11-28T13:58:25.651Z,91.20
2018-11-28T14:00:53.968Z,90.80
2018-11-28T14:05:50.083Z,89.60
2018-11-28T14:08:18.342Z,88.90
2018-11-28T14:13:16.113Z,87.70
2018-11-28T14:15:45.397Z,88.00
2018-11-28T14:23:13.367Z,88.50
2018-11-28T14:25:42.802Z,88.90
2018-11-28T14:28:12.319Z,87.90
2018-11-28T14:30:40.796Z,88.10
2018-11-28T14:33:08.818Z,88.50
2018-11-28T14:35:37.146Z,88.40
2018-11-28T14:38:05.842Z,87.60
2018-11-28T14:40:33.966Z,86.60
2018-11-28T14:43:01.977Z,87.10
2018-11-28T14:47:59.137Z,86.70
2018-11-28T14:55:26.943Z,86.40
2018-11-28T14:57:54.939Z,87.20
2018-11-28T15:00:24.914Z,87.10
2018-11-28T15:02:55.018Z,86.40
2018-11-28T15:07:32.666Z,86.70
2018-11-28T15:12:30.086Z,87.70
2018-11-28T15:14:58.102Z,87.90
2018-11-28T15:17:26.370Z,88.60
2018-11-28T15:24:50.075Z,86.70
2018-11-28T15:27:18.274Z,87.40
2018-11-28T15:29:46.274Z,87.40
2018-11-28T15:32:14.391Z,86.10
2018-11-28T15:34:42.358Z,86.80
2018-11-28T15:37:10.357Z,87.50
2018-11-28T15:39:38.357Z,88.30
2018-11-28T15:42:06.724Z,88.00
2018-11-28T15:44:34.724Z,89.50
2018-11-28T15:47:02.810Z,89.80
2018-11-28T15:49:31.078Z,89.40
2018-11-28T15:51:59.390Z,90.20
2018-11-28T15:56:56.068Z,93.10
2018-11-28T15:59:24.050Z,93.20
2018-11-28T16:01:52.082Z,93.30
2018-11-28T16:04:20.134Z,92.90
2018-11-28T16:06:48.090Z,92.90
2018-11-28T16:09:21.973Z,92.70
2018-11-28T16:11:50.038Z,93.30
2018-11-28T16:16:46.246Z,91.80
2018-11-28T16:19:14.263Z,90.10
2018-11-28T16:24:10.269Z,89.80
2018-11-28T16:26:38.238Z,88.80
2018-11-28T16:29:06.230Z,88.60
2018-11-28T16:31:34.415Z,89.00
2018-11-28T16:36:30.866Z,89.30
2018-11-28T16:38:59.035Z,88.30
2018-11-28T16:41:28.146Z,87.70
2018-11-28T16:46:24.122Z,87.10
2018-11-28T16:48:52.222Z,86.50
2018-11-28T16:51:20.442Z,86.50
2018-11-28T16:56:16.210Z,86.20
2018-11-28T16:58:48.143Z,85.50
2018-11-28T17:01:16.454Z,85.60
2018-11-28T17:06:12.185Z,84.10
2018-11-28T17:13:36.154Z,84.80
2018-11-28T17:16:04.526Z,83.50
2018-11-28T17:21:00.574Z,83.60
2018-11-28T17:23:28.866Z,83.60
2018-11-28T17:25:56.847Z,83.60
2018-11-28T17:28:24.814Z,83.40
2018-11-28T17:30:54.782Z,83.90
2018-11-28T17:33:22.827Z,84.20
2018-11-28T17:35:51.050Z,84.00
2018-11-28T17:38:19.017Z,84.40
2018-11-28T17:40:47.193Z,83.30
2018-11-28T17:43:15.454Z,83.70
2018-11-28T17:45:43.414Z,82.10
2018-11-28T17:48:12.017Z,82.10
2018-11-28T17:50:40.350Z,83.00
2018-11-28T17:55:38.999Z,82.70
2018-11-28T18:00:35.081Z,83.10
2018-11-28T18:03:03.215Z,83.10
2018-11-28T18:05:31.194Z,83.00
2018-11-28T18:07:59.166Z,82.70
2018-11-28T18:10:27.334Z,83.60
2018-11-28T18:13:16.339Z,83.20
2018-11-28T18:18:14.642Z,83.80
2018-11-28T18:20:42.973Z,83.70
2018-11-28T18:23:11.227Z,82.60
2018-11-28T18:28:08.044Z,82.40
2018-11-28T18:30:37.659Z,82.10
2018-11-28T18:38:02.400Z,81.40
2018-11-28T18:40:30.873Z,81.60
2018-11-28T18:42:58.897Z,80.50
2018-11-28T18:45:28.350Z,80.20
2018-11-28T18:50:24.073Z,81.00
2018-11-28T18:52:52.053Z,81.60
2018-11-28T18:55:21.023Z,80.80
2018-11-28T18:57:50.438Z,81.00
2018-11-28T19:00:20.349Z,80.90
2018-11-28T19:02:48.734Z,82.00
2018-11-28T19:07:44.564Z,82.90
2018-11-28T19:10:15.834Z,84.00
2018-11-28T19:12:44.132Z,83.80
2018-11-28T19:17:42.002Z,83.40
2018-11-28T19:20:12.304Z,85.10
2018-11-28T19:22:40.554Z,84.20
2018-11-28T19:25:10.410Z,84.10
2018-11-28T19:27:40.327Z,83.70
2018-11-28T19:30:11.962Z,83.90
2018-11-28T19:32:40.212Z,82.50
2018-11-28T19:35:09.799Z,82.90
2018-11-28T19:37:38.206Z,82.80
2018-11-28T19:40:10.925Z,82.90
2018-11-28T19:45:07.700Z,82.40
2018-11-28T19:47:35.704Z,82.80
2018-11-28T19:50:08.877Z,81.90
2018-11-28T19:52:37.035Z,82.60
2018-11-28T19:55:05.593Z,83.40
2018-11-28T19:57:34.090Z,83.30
2018-11-28T20:00:02.332Z,82.90
2018-11-28T20:02:30.534Z,83.90
2018-11-28T20:04:58.503Z,84.60
2018-11-28T20:07:26.680Z,84.20
2018-11-28T20:09:57.586Z,83.40
2018-11-28T20:12:26.456Z,82.80
2018-11-28T20:14:54.434Z,83.00
2018-11-28T20:17:22.390Z,83.90
2018-11-28T20:19:50.819Z,84.20
2018-11-28T20:22:19.199Z,83.00
2018-11-28T20:24:47.586Z,83.20
2018-11-28T20:32:13.124Z,83.40
2018-11-28T20:34:43.040Z,83.50
2018-11-28T20:37:11.026Z,82.50
2018-11-28T20:39:38.970Z,83.60
2018-11-28T20:42:07.070Z,84.30
2018-11-28T20:44:36.957Z,84.60
2018-11-28T20:49:34.385Z,83.50
2018-11-28T20:52:02.675Z,84.10
2018-11-28T20:54:30.871Z,84.20
2018-11-28T20:56:58.834Z,84.00
2018-11-28T20:59:27.026Z,84.00
2018-11-28T21:01:55.323Z,82.30
2018-11-28T21:04:23.343Z,83.10
2018-11-28T21:06:51.431Z,83.20
2018-11-28T21:14:15.456Z,82.30
2018-11-28T21:16:43.744Z,82.10
2018-11-28T21:19:12.002Z,82.50
2018-11-28T21:21:39.981Z,82.50
2018-11-28T21:24:08.161Z,82.50
2018-11-28T21:26:36.131Z,83.40
2018-11-28T21:29:04.607Z,82.50
2018-11-28T21:31:32.634Z,81.90
2018-11-28T21:34:00.565Z,82.10
2018-11-28T21:36:28.703Z,81.70
2018-11-28T21:41:24.444Z,81.30
2018-11-28T21:43:52.773Z,81.80
2018-11-28T21:46:21.016Z,82.10
2018-11-28T21:48:48.994Z,80.70
2018-11-28T21:51:17.167Z,79.90
2018-11-28T21:53:45.481Z,81.60
2018-11-28T21:58:42.781Z,82.80
2018-11-28T22:01:12.298Z,80.70
2018-11-28T22:03:43.870Z,81.00
2018-11-28T22:08:42.026Z,81.90
2018-11-28T22:11:11.951Z,81.80
2018-11-28T22:13:41.454Z,81.20
2018-11-28T22:16:11.009Z,81.70
2018-11-28T22:18:40.457Z,81.90
2018-11-28T22:21:09.969Z,82.30
2018-11-28T22:23:40.285Z,81.30
2018-11-28T22:26:09.591Z,81.10
2018-11-28T22:28:38.406Z,81.60
2018-11-28T22:31:06.750Z,81.70
2018-11-28T22:36:05.558Z,81.90
2018-11-28T22:38:35.079Z,80.50
2018-11-28T22:43:34.275Z,82.40
2018-11-28T22:46:03.782Z,82.90
2018-11-28T22:48:33.692Z,83.30
2018-11-28T22:51:03.214Z,82.20
2018-11-28T22:53:33.121Z,82.30
2018-11-28T22:56:03.066Z,82.00
2018-11-28T22:58:32.548Z,82.60
2018-11-28T23:01:07.915Z,82.40
2018-11-28T23:03:37.078Z,82.30
2018-11-28T23:06:05.783Z,82.20
2018-11-28T23:08:35.090Z,82.30
2018-11-28T23:11:04.363Z,81.20
2018-11-28T23:13:33.252Z,82.40
2018-11-28T23:16:02.761Z,82.80
2018-11-28T23:18:32.684Z,82.50
2018-11-28T23:23:31.327Z,82.00
2018-11-28T23:26:01.198Z,81.60
2018-11-28T23:28:30.685Z,82.10
2018-11-28T23:31:00.407Z,82.60
2018-11-28T23:33:30.097Z,81.60
2018-11-28T23:38:29.123Z,82.20
2018-11-28T23:43:27.320Z,82.40
2018-11-28T23:45:56.466Z,82.90
2018-11-28T23:50:54.590Z,83.30
2018-11-28T23:53:24.520Z,82.80
2018-11-28T23:55:54.006Z,82.80
